Etusivu
METAR-TAF:

METAR-TAF

Lentoasemat :

Tétouan, Marokko

Leveyspiiri: 35-35N, Pituuspiiri: 005-20W, korkeus merenpinnasta: 10 m

Tämänhetkinen sää

Tämä raportti tehtiin 49 minuuttia sitten, kello 06.00 UTC
Tuuli 11 kn etelästä
Lämpötila 17°C
Kosteus 59%
Ilmanpaine 1012 hPa
Näkyvyys 10 km tai enemmän
ei pilviä alle 1500 m:ssä eikä cumulonimbus-pilviä

METAR: GMTN 240600Z 19011KT CAVOK 17/09 Q1012 NOSIG

Aika: 06:49 (06:49 UTC)


TAF: puuttuu

Säähavainnot ja -ennusteet yli 4000 lentoasemalta (METAR- ja TAF-raportit).

Käytössä olevat sääasemat on merkitty karttaan keltaisilla ja punaisilla pisteillä.

Aseta hiiri pisteen päälle nähdäksesi sääaseman nimen.

Klikkaa sitten nähdäksesi säähavainnot ja -ennusteet.

Kartan vaihtaminen: klikkaa mustalla rastilla varustettuja vihreitä pisteitä, niin voit zoomata sisään; viivalla varustettua vihreää pistettä, niin voit zoomata ulos tai vihreitä nuolia, niin pääset viereisille kartoille.


METAR-TAF: